createdAt,value
2022-12-31T00:01:52.897Z,32.16
2022-12-31T00:04:19.259Z,32.11
2022-12-31T00:06:45.608Z,32.15
2022-12-31T00:09:12.005Z,32.17
2022-12-31T00:11:38.382Z,32.22
2022-12-31T00:14:04.761Z,32.23
2022-12-31T00:16:31.181Z,32.27
2022-12-31T00:18:57.534Z,32.33
2022-12-31T00:21:25.118Z,32.38
2022-12-31T00:23:50.258Z,32.36
2022-12-31T00:26:16.631Z,32.35
2022-12-31T00:28:43.073Z,32.41
2022-12-31T00:31:09.542Z,32.43
2022-12-31T00:33:35.879Z,32.47
2022-12-31T00:36:02.251Z,32.49
2022-12-31T00:38:28.649Z,32.50
2022-12-31T00:40:56.023Z,32.53
2022-12-31T00:43:21.412Z,32.56
2022-12-31T00:45:48.743Z,32.58
2022-12-31T00:48:14.171Z,32.56
2022-12-31T00:50:40.519Z,32.60
2022-12-31T00:53:06.904Z,32.62
2022-12-31T00:55:33.250Z,32.65
2022-12-31T00:57:59.627Z,32.65
2022-12-31T01:00:25.963Z,32.68
2022-12-31T01:02:52.487Z,32.70
2022-12-31T01:05:18.723Z,32.72
2022-12-31T01:07:45.117Z,32.72
2022-12-31T01:10:11.508Z,32.72
2022-12-31T01:12:37.911Z,32.77
2022-12-31T01:15:04.260Z,32.76
2022-12-31T01:17:30.654Z,32.75
2022-12-31T01:19:56.992Z,32.75
2022-12-31T01:22:23.478Z,32.78
2022-12-31T01:24:49.822Z,32.87
2022-12-31T01:27:16.211Z,32.83
2022-12-31T01:29:42.556Z,32.84
2022-12-31T01:32:08.947Z,32.88
2022-12-31T01:34:35.330Z,32.93
2022-12-31T01:37:01.712Z,32.91
2022-12-31T01:39:28.082Z,32.94
2022-12-31T01:41:54.477Z,32.97
2022-12-31T01:44:20.824Z,33.01
2022-12-31T01:46:47.248Z,33.02
2022-12-31T01:49:13.587Z,33.01
2022-12-31T01:51:40.010Z,33.07
2022-12-31T01:54:06.366Z,32.99
2022-12-31T01:56:32.728Z,33.01
2022-12-31T01:58:59.080Z,32.95
2022-12-31T02:01:25.576Z,33.02
2022-12-31T02:03:51.864Z,33.05
2022-12-31T02:06:18.298Z,33.03
2022-12-31T02:08:44.645Z,33.03
2022-12-31T02:11:11.079Z,33.02
2022-12-31T02:13:37.422Z,33.01
2022-12-31T02:16:03.840Z,32.92
2022-12-31T02:18:30.169Z,32.91
2022-12-31T02:20:56.585Z,32.89
2022-12-31T02:23:22.960Z,32.92
2022-12-31T02:25:49.353Z,32.88
2022-12-31T02:28:15.698Z,32.91
2022-12-31T02:30:42.115Z,32.91
2022-12-31T02:33:08.467Z,32.88
2022-12-31T02:35:34.863Z,32.80
2022-12-31T02:38:01.225Z,32.81
2022-12-31T02:40:27.608Z,32.80
2022-12-31T02:42:55.753Z,32.81
2022-12-31T02:45:20.344Z,32.78
2022-12-31T02:47:46.724Z,32.81
2022-12-31T02:50:13.130Z,32.81
2022-12-31T02:52:39.481Z,32.80
2022-12-31T02:55:05.894Z,32.84
2022-12-31T02:57:32.241Z,32.85
2022-12-31T02:59:58.626Z,32.83
2022-12-31T03:02:25.113Z,32.87
2022-12-31T03:04:51.394Z,32.91
2022-12-31T03:07:17.735Z,32.95
2022-12-31T03:09:44.146Z,32.97
2022-12-31T03:12:10.510Z,33.02
2022-12-31T03:14:36.901Z,33.02
2022-12-31T03:17:03.249Z,33.08
2022-12-31T03:19:29.663Z,33.10
2022-12-31T03:21:56.011Z,33.17
2022-12-31T03:24:22.427Z,33.10
2022-12-31T03:26:48.781Z,33.15
2022-12-31T03:29:15.206Z,33.12
2022-12-31T03:31:41.627Z,33.16
2022-12-31T03:34:07.971Z,33.30
2022-12-31T03:36:34.335Z,33.31
2022-12-31T03:39:00.718Z,33.31
2022-12-31T03:41:27.068Z,33.37
2022-12-31T03:43:53.477Z,33.39
2022-12-31T03:46:19.872Z,33.38
2022-12-31T03:48:46.211Z,33.43
2022-12-31T03:51:12.569Z,33.40
2022-12-31T03:53:38.964Z,33.39
2022-12-31T03:56:05.323Z,33.44
2022-12-31T03:58:31.710Z,33.45
2022-12-31T04:00:58.178Z,33.46
2022-12-31T04:03:24.528Z,33.49
2022-12-31T04:05:50.816Z,33.53
2022-12-31T04:08:17.186Z,33.55
2022-12-31T04:10:43.576Z,33.52
2022-12-31T04:13:09.942Z,33.56
2022-12-31T04:15:36.334Z,33.57
2022-12-31T04:18:02.668Z,33.58
2022-12-31T04:20:29.061Z,33.58
2022-12-31T04:22:55.437Z,33.63
2022-12-31T04:25:21.831Z,33.64
2022-12-31T04:27:48.206Z,33.62
2022-12-31T04:30:14.597Z,33.66
2022-12-31T04:32:40.931Z,33.64
2022-12-31T04:35:07.346Z,33.63
2022-12-31T04:37:33.682Z,33.64
2022-12-31T04:40:05.455Z,33.65
2022-12-31T04:42:26.479Z,33.68
2022-12-31T04:44:52.879Z,33.63
2022-12-31T04:47:23.568Z,33.67
2022-12-31T04:49:45.643Z,33.69
2022-12-31T04:52:12.023Z,33.68
2022-12-31T04:54:38.411Z,33.68
2022-12-31T04:57:04.792Z,33.69
2022-12-31T04:59:31.173Z,33.67
2022-12-31T05:01:57.722Z,33.63
2022-12-31T05:04:23.903Z,33.63
2022-12-31T05:06:50.254Z,33.61
2022-12-31T05:09:16.668Z,33.62
2022-12-31T05:11:43.010Z,33.62
2022-12-31T05:14:09.400Z,33.62
2022-12-31T05:16:35.827Z,33.65
2022-12-31T05:19:02.150Z,33.63
2022-12-31T05:21:28.525Z,33.65
2022-12-31T05:23:55.063Z,33.66
2022-12-31T05:26:21.417Z,33.65
2022-12-31T05:28:47.816Z,33.69
2022-12-31T05:31:14.249Z,33.67
2022-12-31T05:33:40.596Z,33.66
2022-12-31T05:36:06.938Z,33.68
2022-12-31T05:38:33.321Z,33.68
2022-12-31T05:40:59.688Z,33.69
2022-12-31T05:43:26.107Z,33.70
2022-12-31T05:45:52.509Z,33.71
2022-12-31T05:48:18.922Z,33.68
2022-12-31T05:50:45.261Z,33.72
2022-12-31T05:53:11.680Z,33.75
2022-12-31T05:55:38.027Z,33.78
2022-12-31T05:58:05.721Z,33.78
2022-12-31T06:00:30.760Z,33.79
2022-12-31T06:02:57.310Z,33.78
2022-12-31T06:05:26.358Z,33.63
2022-12-31T06:07:49.895Z,33.65
2022-12-31T06:10:16.237Z,33.53
2022-12-31T06:12:42.621Z,33.45
2022-12-31T06:15:08.996Z,33.36
2022-12-31T06:17:35.387Z,33.27
2022-12-31T06:20:04.853Z,33.19
2022-12-31T06:22:28.165Z,33.07
2022-12-31T06:24:54.537Z,33.01
2022-12-31T06:27:20.914Z,32.92
2022-12-31T06:29:47.287Z,32.69
2022-12-31T06:32:13.677Z,32.79
2022-12-31T06:34:40.067Z,32.59
2022-12-31T06:37:06.484Z,32.55
2022-12-31T06:39:32.811Z,32.43
2022-12-31T06:42:00.433Z,32.33
2022-12-31T06:44:25.600Z,32.23
2022-12-31T06:46:52.096Z,32.07
2022-12-31T06:49:18.382Z,32.09
2022-12-31T06:51:44.748Z,31.94
2022-12-31T06:54:11.104Z,31.90
2022-12-31T06:56:37.520Z,31.69
2022-12-31T06:59:03.875Z,31.75
2022-12-31T07:01:30.345Z,31.61
2022-12-31T07:03:56.616Z,31.50
2022-12-31T07:06:22.998Z,31.47
2022-12-31T07:08:50.370Z,31.40
2022-12-31T07:11:15.761Z,31.21
2022-12-31T07:13:42.115Z,31.11
2022-12-31T07:16:08.572Z,30.93
2022-12-31T07:18:34.872Z,30.91
2022-12-31T07:21:01.259Z,30.77
2022-12-31T07:23:27.628Z,30.72
2022-12-31T07:25:54.015Z,30.66
2022-12-31T07:28:20.385Z,30.56
2022-12-31T07:30:46.785Z,30.53
2022-12-31T07:33:13.177Z,30.43
2022-12-31T07:35:39.587Z,30.42
2022-12-31T07:38:05.927Z,30.35
2022-12-31T07:40:33.558Z,30.28
2022-12-31T07:42:58.701Z,30.21
2022-12-31T07:45:25.126Z,30.17
2022-12-31T07:47:51.461Z,30.08
2022-12-31T07:50:17.908Z,29.97
2022-12-31T07:52:44.257Z,29.96
2022-12-31T07:55:10.695Z,29.90
2022-12-31T07:57:37.045Z,29.82
2022-12-31T08:00:03.441Z,29.76
2022-12-31T08:02:30.964Z,29.69
2022-12-31T08:04:56.207Z,29.59
2022-12-31T08:07:22.596Z,29.58
2022-12-31T08:09:48.980Z,29.50
2022-12-31T08:12:15.342Z,29.44
2022-12-31T08:26:48.190Z,29.38
2022-12-31T08:29:11.114Z,29.40
2022-12-31T08:31:37.542Z,29.34
2022-12-31T08:34:05.968Z,29.31
2022-12-31T08:36:30.270Z,29.27
2022-12-31T08:38:56.619Z,29.31
2022-12-31T08:41:23.012Z,29.26
2022-12-31T08:43:49.360Z,29.15
2022-12-31T08:46:15.833Z,29.18
2022-12-31T08:48:42.110Z,29.21
2022-12-31T08:51:08.502Z,29.07
2022-12-31T08:53:34.844Z,29.11
2022-12-31T08:56:01.227Z,29.03
2022-12-31T08:58:27.570Z,28.94
2022-12-31T09:00:54.049Z,28.95
2022-12-31T09:03:20.317Z,28.89
2022-12-31T09:05:46.701Z,28.80
2022-12-31T09:08:13.073Z,28.74
2022-12-31T09:10:39.485Z,28.78
2022-12-31T09:13:05.819Z,28.74
2022-12-31T09:15:32.250Z,28.64
2022-12-31T09:17:58.588Z,28.62
2022-12-31T09:20:24.989Z,28.57
2022-12-31T09:22:51.336Z,28.51
2022-12-31T09:25:17.756Z,28.56
2022-12-31T09:27:44.088Z,28.51
2022-12-31T09:30:10.522Z,28.47
2022-12-31T09:32:36.862Z,28.38
2022-12-31T09:35:03.280Z,28.34
2022-12-31T09:37:29.628Z,28.34
2022-12-31T09:39:56.006Z,28.32
2022-12-31T09:42:22.383Z,28.24
2022-12-31T09:44:48.768Z,28.29
2022-12-31T09:47:15.115Z,28.22
2022-12-31T09:49:41.632Z,28.21
2022-12-31T09:54:53.320Z,28.24
2022-12-31T09:57:19.652Z,28.15
2022-12-31T09:59:46.052Z,28.12
2022-12-31T10:02:12.603Z,28.18
2022-12-31T10:04:38.777Z,28.12
2022-12-31T10:07:05.126Z,28.08
2022-12-31T10:09:31.576Z,28.06
2022-12-31T10:11:57.921Z,28.03
2022-12-31T10:14:24.305Z,28.00
2022-12-31T10:16:50.695Z,27.96
2022-12-31T10:19:17.070Z,27.89
2022-12-31T10:21:43.463Z,27.92
2022-12-31T10:24:09.838Z,27.82
2022-12-31T10:26:36.173Z,27.82
2022-12-31T10:29:02.569Z,27.82
2022-12-31T10:31:28.899Z,27.72
2022-12-31T10:33:55.290Z,27.71
2022-12-31T10:36:21.639Z,27.63
2022-12-31T10:38:48.127Z,27.69
2022-12-31T10:41:14.457Z,27.64
2022-12-31T10:43:40.908Z,27.60
2022-12-31T10:46:07.287Z,27.55
2022-12-31T10:48:33.643Z,27.53
2022-12-31T10:51:00.018Z,27.49
2022-12-31T10:53:26.414Z,27.44
2022-12-31T10:55:52.786Z,27.44
2022-12-31T10:58:19.182Z,27.43
2022-12-31T11:00:45.517Z,27.32
2022-12-31T11:03:11.977Z,27.34
2022-12-31T11:05:38.380Z,27.28
2022-12-31T11:08:04.764Z,27.28
2022-12-31T11:10:31.099Z,27.21
2022-12-31T11:12:58.803Z,27.16
2022-12-31T11:15:23.856Z,27.09
2022-12-31T11:17:50.281Z,27.02
2022-12-31T11:20:16.618Z,26.96
2022-12-31T11:22:43.060Z,26.94
2022-12-31T11:25:09.373Z,26.87
2022-12-31T11:27:35.768Z,26.84
2022-12-31T11:30:02.105Z,26.82
2022-12-31T11:32:28.507Z,26.79
2022-12-31T11:34:54.859Z,26.64
2022-12-31T11:37:21.252Z,26.67
2022-12-31T11:39:47.622Z,26.52
2022-12-31T11:42:13.980Z,26.47
2022-12-31T11:44:40.363Z,26.38
2022-12-31T11:47:06.754Z,26.29
2022-12-31T11:49:33.088Z,26.19
2022-12-31T11:51:59.477Z,26.16
2022-12-31T11:54:25.819Z,26.03
2022-12-31T11:56:52.220Z,26.00
2022-12-31T11:59:19.893Z,25.91
2022-12-31T12:01:44.968Z,25.80
2022-12-31T12:04:11.358Z,25.70
2022-12-31T12:06:37.722Z,25.62
2022-12-31T12:09:04.070Z,25.52
2022-12-31T12:11:30.501Z,25.41
2022-12-31T12:13:56.845Z,25.27
2022-12-31T12:16:23.345Z,25.15
2022-12-31T12:18:49.635Z,24.98
2022-12-31T12:21:16.049Z,24.99
2022-12-31T12:23:42.427Z,25.00
2022-12-31T12:26:08.821Z,24.96
2022-12-31T12:28:38.396Z,24.90
2022-12-31T12:31:01.669Z,24.87
2022-12-31T12:33:28.001Z,24.80
2022-12-31T12:35:54.385Z,24.81
2022-12-31T12:38:20.755Z,24.74
2022-12-31T12:40:47.129Z,24.77
2022-12-31T12:43:13.506Z,24.77
2022-12-31T12:45:39.884Z,24.68
2022-12-31T12:48:06.259Z,24.62
2022-12-31T12:50:32.644Z,24.67
2022-12-31T12:52:59.733Z,24.57
2022-12-31T12:55:25.407Z,24.48
2022-12-31T12:57:51.743Z,24.56
2022-12-31T13:00:18.166Z,24.51
2022-12-31T13:02:44.522Z,24.52
2022-12-31T13:05:10.924Z,24.53
2022-12-31T13:07:37.259Z,24.47
2022-12-31T13:10:03.666Z,24.49
2022-12-31T13:12:48.984Z,24.43
2022-12-31T13:14:56.384Z,24.31
2022-12-31T13:17:22.730Z,24.41
2022-12-31T13:19:49.143Z,24.43
2022-12-31T13:22:15.471Z,24.41
2022-12-31T13:24:41.997Z,24.36
2022-12-31T13:27:08.337Z,24.34
2022-12-31T13:29:34.862Z,24.35
2022-12-31T13:32:01.248Z,24.33
2022-12-31T13:34:27.594Z,24.30
2022-12-31T13:36:53.924Z,24.32
2022-12-31T13:39:20.331Z,24.32
2022-12-31T13:41:46.665Z,24.33
2022-12-31T13:44:13.061Z,24.35
2022-12-31T13:46:39.391Z,24.51
2022-12-31T13:49:05.814Z,24.51
2022-12-31T13:51:32.155Z,24.49
2022-12-31T13:53:58.543Z,24.44
2022-12-31T13:56:25.971Z,24.41
2022-12-31T13:58:51.288Z,24.41
2022-12-31T14:01:17.710Z,24.41
2022-12-31T14:03:44.046Z,24.54
2022-12-31T14:06:10.384Z,24.48
2022-12-31T14:08:36.777Z,24.60
2022-12-31T14:11:03.107Z,24.74
2022-12-31T14:13:34.583Z,24.80
2022-12-31T14:15:55.886Z,24.84
2022-12-31T14:18:22.276Z,24.84
2022-12-31T14:20:48.625Z,24.93
2022-12-31T14:23:15.000Z,24.98
2022-12-31T14:25:41.363Z,24.95
2022-12-31T14:28:07.735Z,25.06
2022-12-31T14:30:34.103Z,25.02
2022-12-31T14:33:00.497Z,25.09
2022-12-31T14:35:26.849Z,25.13
2022-12-31T14:37:53.266Z,25.21
2022-12-31T14:40:19.612Z,25.12
2022-12-31T14:42:46.008Z,25.17
2022-12-31T14:45:12.337Z,25.22
2022-12-31T14:47:38.757Z,25.26
2022-12-31T14:50:05.103Z,25.27
2022-12-31T14:52:31.518Z,25.36
2022-12-31T14:54:57.847Z,25.33
2022-12-31T14:57:24.263Z,25.32
2022-12-31T14:59:50.609Z,25.37
2022-12-31T15:02:17.154Z,25.44
2022-12-31T15:04:43.397Z,25.59
2022-12-31T15:07:09.772Z,25.49
2022-12-31T15:09:36.153Z,25.36
2022-12-31T15:12:02.561Z,25.41
2022-12-31T15:14:33.702Z,25.44
2022-12-31T15:16:55.294Z,25.41
2022-12-31T15:19:21.689Z,25.45
2022-12-31T15:21:48.105Z,25.48
2022-12-31T15:24:14.450Z,25.55
2022-12-31T15:26:40.888Z,25.54
2022-12-31T15:29:07.221Z,25.63
2022-12-31T15:31:33.633Z,25.64
2022-12-31T15:33:59.957Z,25.64
2022-12-31T15:36:26.364Z,25.72
2022-12-31T15:38:52.722Z,25.74
2022-12-31T15:41:19.135Z,25.76
2022-12-31T15:43:45.473Z,25.82
2022-12-31T15:46:11.899Z,25.83
2022-12-31T15:48:38.202Z,25.89
2022-12-31T15:51:04.616Z,25.99
2022-12-31T15:53:30.982Z,25.96
2022-12-31T15:55:57.363Z,26.05
2022-12-31T15:58:23.699Z,26.10
2022-12-31T16:00:50.118Z,26.15
2022-12-31T16:03:16.629Z,26.22
2022-12-31T16:05:42.871Z,26.28
2022-12-31T16:08:09.206Z,26.34
2022-12-31T16:10:37.653Z,26.35
2022-12-31T16:13:02.015Z,26.41
2022-12-31T16:15:28.439Z,26.51
2022-12-31T16:17:54.773Z,26.60
2022-12-31T16:20:21.162Z,26.65
2022-12-31T16:22:47.501Z,26.64
2022-12-31T16:25:31.172Z,26.73
2022-12-31T16:27:40.273Z,26.79
2022-12-31T16:30:06.669Z,26.85
2022-12-31T16:32:33.027Z,26.88
2022-12-31T16:34:59.407Z,26.96
2022-12-31T16:37:25.779Z,27.01
2022-12-31T16:39:52.157Z,27.10
2022-12-31T16:42:18.523Z,27.01
2022-12-31T16:44:44.928Z,27.20
2022-12-31T16:47:11.275Z,27.21
2022-12-31T16:49:38.889Z,27.14
2022-12-31T16:52:04.082Z,27.15
2022-12-31T16:54:30.489Z,27.22
2022-12-31T16:56:56.833Z,27.31
2022-12-31T16:59:24.132Z,27.33
2022-12-31T17:01:49.705Z,27.43
2022-12-31T17:04:16.013Z,27.48
2022-12-31T17:06:42.359Z,27.56
2022-12-31T17:09:08.744Z,27.64
2022-12-31T17:11:35.117Z,27.73
2022-12-31T17:14:01.503Z,27.87
2022-12-31T17:16:27.897Z,27.86
2022-12-31T17:18:54.241Z,27.85
2022-12-31T17:21:20.592Z,27.84
2022-12-31T17:23:46.982Z,27.93
2022-12-31T17:26:13.354Z,28.05
2022-12-31T17:28:39.800Z,28.05
2022-12-31T17:31:06.191Z,28.18
2022-12-31T17:33:32.552Z,28.17
2022-12-31T17:35:58.882Z,28.29
2022-12-31T17:38:25.300Z,28.29
2022-12-31T17:40:52.431Z,28.32
2022-12-31T17:43:18.117Z,28.33
2022-12-31T17:45:44.492Z,28.36
2022-12-31T17:48:10.884Z,28.39
2022-12-31T17:50:37.310Z,28.44
2022-12-31T17:53:03.709Z,28.53
2022-12-31T17:55:30.044Z,28.55
2022-12-31T17:57:56.462Z,28.60
2022-12-31T18:00:22.818Z,28.57
2022-12-31T18:02:49.243Z,28.69
2022-12-31T18:05:15.574Z,28.74
2022-12-31T18:07:41.957Z,28.76
2022-12-31T18:10:08.346Z,28.79
2022-12-31T18:12:34.714Z,28.89
2022-12-31T18:15:01.062Z,28.92
2022-12-31T18:17:27.445Z,28.95
2022-12-31T18:20:04.876Z,29.02
2022-12-31T18:22:20.211Z,29.02
2022-12-31T18:24:46.561Z,29.06
2022-12-31T18:27:12.979Z,29.11
2022-12-31T18:29:39.353Z,29.18
2022-12-31T18:32:05.743Z,29.18
2022-12-31T18:34:32.094Z,29.18
2022-12-31T18:36:58.481Z,29.22
2022-12-31T18:39:24.832Z,29.26
2022-12-31T18:41:51.221Z,29.37
2022-12-31T18:44:17.557Z,29.40
2022-12-31T18:46:43.961Z,29.40
2022-12-31T18:49:10.347Z,29.42
2022-12-31T18:51:36.728Z,29.40
2022-12-31T18:54:03.103Z,29.53
2022-12-31T18:56:29.459Z,29.55
2022-12-31T18:58:55.888Z,29.59
2022-12-31T19:01:22.321Z,29.63
2022-12-31T19:03:48.658Z,29.63
2022-12-31T19:06:16.207Z,29.66
2022-12-31T19:08:41.419Z,29.69
2022-12-31T19:11:07.764Z,29.79
2022-12-31T19:13:34.186Z,29.72
2022-12-31T19:16:00.556Z,29.76
2022-12-31T19:18:26.930Z,29.88
2022-12-31T19:20:53.308Z,29.91
2022-12-31T19:23:19.775Z,29.90
2022-12-31T19:25:46.049Z,29.95
2022-12-31T19:28:12.423Z,30.01
2022-12-31T19:30:38.767Z,30.00
2022-12-31T19:33:05.153Z,30.08
2022-12-31T19:35:31.509Z,30.04
2022-12-31T19:37:57.921Z,30.09
2022-12-31T19:40:24.281Z,30.14
2022-12-31T19:42:50.704Z,30.20
2022-12-31T19:45:17.092Z,30.22
2022-12-31T19:47:43.463Z,30.21
2022-12-31T19:50:09.834Z,30.28
2022-12-31T19:52:36.272Z,30.31
2022-12-31T19:55:02.612Z,30.39
2022-12-31T19:57:29.008Z,30.36
2022-12-31T19:59:55.352Z,30.40
2022-12-31T20:02:21.941Z,30.43
2022-12-31T20:04:48.102Z,30.50
2022-12-31T20:07:14.486Z,30.53
2022-12-31T20:09:40.875Z,30.53
2022-12-31T20:12:07.288Z,30.50
2022-12-31T20:14:34.611Z,30.56
2022-12-31T20:17:00.099Z,30.58
2022-12-31T20:19:26.394Z,30.58
2022-12-31T20:21:55.230Z,30.65
2022-12-31T20:24:21.569Z,30.65
2022-12-31T20:26:48.004Z,30.64
2022-12-31T20:29:14.341Z,30.64
2022-12-31T20:31:40.755Z,30.70
2022-12-31T20:34:07.188Z,30.77
2022-12-31T20:36:33.522Z,30.79
2022-12-31T20:38:59.941Z,30.75
2022-12-31T20:41:26.334Z,30.80
2022-12-31T20:43:52.703Z,30.81
2022-12-31T20:46:19.148Z,30.85
2022-12-31T20:48:45.458Z,30.87
2022-12-31T20:51:11.853Z,30.88
2022-12-31T20:53:38.257Z,30.93
2022-12-31T20:56:04.693Z,30.94
2022-12-31T20:58:31.037Z,30.95
2022-12-31T21:00:57.627Z,30.97
2022-12-31T21:04:03.184Z,31.04
2022-12-31T21:05:50.354Z,30.98
2022-12-31T21:08:16.551Z,31.03
2022-12-31T21:10:42.963Z,31.01
2022-12-31T21:13:09.305Z,31.01
2022-12-31T21:15:35.765Z,31.04
2022-12-31T21:18:02.074Z,31.03
2022-12-31T21:20:28.473Z,31.10
2022-12-31T21:22:54.821Z,31.16
2022-12-31T21:25:21.211Z,31.12
2022-12-31T21:27:47.542Z,31.13
2022-12-31T21:30:19.062Z,31.07
2022-12-31T21:32:40.306Z,31.13
2022-12-31T21:35:41.233Z,31.17
2022-12-31T21:37:58.802Z,31.20
2022-12-31T21:39:59.498Z,31.20
2022-12-31T21:42:25.879Z,31.21
2022-12-31T21:44:52.266Z,31.24
2022-12-31T21:47:36.496Z,31.30
2022-12-31T21:49:45.034Z,31.27
2022-12-31T21:52:11.407Z,31.30
2022-12-31T21:54:37.872Z,31.32
2022-12-31T21:57:04.247Z,31.38
2022-12-31T21:59:30.656Z,31.39
2022-12-31T22:01:57.147Z,31.42
2022-12-31T22:05:00.292Z,31.43
2022-12-31T22:06:49.768Z,31.44
2022-12-31T22:09:16.171Z,31.42
2022-12-31T22:11:42.501Z,31.47
2022-12-31T22:14:08.899Z,31.55
2022-12-31T22:16:35.298Z,31.53
2022-12-31T22:19:01.660Z,31.49
2022-12-31T22:21:28.013Z,31.59
2022-12-31T22:23:54.418Z,31.60
2022-12-31T22:26:20.741Z,31.53
2022-12-31T22:28:47.127Z,31.55
2022-12-31T22:31:13.580Z,31.57
2022-12-31T22:33:39.861Z,31.65
2022-12-31T22:36:07.183Z,31.64
2022-12-31T22:38:32.636Z,31.64
2022-12-31T22:40:58.975Z,31.68
2022-12-31T22:43:25.368Z,31.70
2022-12-31T22:45:51.730Z,31.69
2022-12-31T22:48:18.130Z,31.67
2022-12-31T22:50:44.460Z,31.69
2022-12-31T22:53:11.918Z,31.71
2022-12-31T22:55:38.260Z,31.76
2022-12-31T22:58:04.672Z,31.80
2022-12-31T23:00:31.007Z,31.85
2022-12-31T23:02:57.494Z,31.81
2022-12-31T23:05:23.810Z,31.85
2022-12-31T23:07:50.225Z,31.84
2022-12-31T23:10:16.573Z,31.85
2022-12-31T23:12:42.990Z,31.86
2022-12-31T23:15:09.326Z,31.88
2022-12-31T23:17:35.710Z,31.90
2022-12-31T23:20:02.085Z,31.89
2022-12-31T23:22:28.478Z,31.94
2022-12-31T23:24:54.815Z,31.93
2022-12-31T23:27:21.197Z,31.99
2022-12-31T23:29:47.897Z,31.99
2022-12-31T23:32:13.945Z,32.01
2022-12-31T23:34:40.314Z,32.04
2022-12-31T23:37:06.722Z,32.04
2022-12-31T23:39:33.063Z,32.03
2022-12-31T23:41:59.438Z,32.08
2022-12-31T23:44:25.786Z,32.11
2022-12-31T23:46:52.292Z,32.11
2022-12-31T23:49:18.618Z,32.13
2022-12-31T23:51:45.016Z,32.14
2022-12-31T23:54:11.360Z,32.17
2022-12-31T23:56:37.764Z,32.20
2022-12-31T23:59:04.111Z,32.17
